Wetterdaten: Woche 26.10.20 - 01.11.20 (KW44)
Datum Zeit Temp. Aussen Temp. o. S. Temp +5cm Feuchte Auss Luftdruck Regen Sonnenschein Regendauer Solar Windben Empfang
26.10.2020 00:00 10,1 C 9,7 C 8,8 C 96 % 1001,9 hPa 0,0 l/m 0,00 h 0,03 h 0 W/m 2,4 km/h (1 Bft) 97,56 %
26.10.2020 01:00 10,4 C 9,5 C 8,9 C 96 % 1001,4 hPa 0,0 l/m 0,00 h 0,07 h 0 W/m 0,1 km/h (0 Bft) 95,73 %
26.10.2020 02:00 10,4 C 9,6 C 8,9 C 96 % 1001,2 hPa 0,0 l/m 0,00 h 0,03 h 0 W/m 0,0 km/h (0 Bft) 98,72 %
26.10.2020 03:00 10,4 C 10,1 C 8,9 C 95 % 1001,5 hPa 0,0 l/m 0,00 h 0,00 h 0 W/m 3,6 km/h (1 Bft) 98,15 %
26.10.2020 04:00 10,5 C 9,9 C 8,9 C 93 % 1001,4 hPa 0,0 l/m 0,00 h 0,00 h 0 W/m 3,4 km/h (1 Bft) 97,04 %
26.10.2020 05:00 10,2 C 9,0 C 8,4 C 92 % 1001,1 hPa 0,0 l/m 0,00 h 0,00 h 0 W/m 0,0 km/h (0 Bft) 98,58 %
26.10.2020 06:00 9,6 C 8,5 C 8,0 C 93 % 1001,0 hPa 0,0 l/m 0,00 h 0,00 h 0 W/m 0,0 km/h (0 Bft) 94,97 %
26.10.2020 07:00 9,1 C 8,4 C 7,8 C 94 % 1001,6 hPa 0,0 l/m 0,00 h 0,00 h 10 W/m 0,0 km/h (0 Bft) 97,45 %
26.10.2020 08:00 9,2 C 9,1 C 8,5 C 95 % 1001,9 hPa 0,0 l/m 0,00 h 0,00 h 43 W/m 10,7 km/h (2 Bft) 99,50 %
26.10.2020 09:00 9,8 C 10,0 C 9,3 C 92 % 1002,2 hPa 0,0 l/m 0,03 h 0,00 h 98 W/m 22,0 km/h (4 Bft) 96,23 %
26.10.2020 10:00 10,7 C 11,9 C 10,2 C 86 % 1002,5 hPa 0,0 l/m 0,67 h 0,00 h 229 W/m 24,2 km/h (4 Bft) 98,25 %
26.10.2020 11:00 11,4 C 11,6 C 10,4 C 80 % 1002,4 hPa 0,0 l/m 0,00 h 0,00 h 153 W/m 26,9 km/h (4 Bft) 97,08 %
26.10.2020 12:00 11,4 C 11,6 C 10,3 C 79 % 1002,4 hPa 0,0 l/m 0,10 h 0,00 h 132 W/m 18,4 km/h (3 Bft) 98,46 %
26.10.2020 13:00 12,3 C 13,3 C 10,7 C 77 % 1002,2 hPa 0,0 l/m 0,30 h 0,00 h 190 W/m 18,9 km/h (3 Bft) 96,65 %
26.10.2020 14:00 12,4 C 12,2 C 10,6 C 76 % 1002,2 hPa 0,0 l/m 0,00 h 0,00 h 113 W/m 18,9 km/h (3 Bft) 97,43 %
26.10.2020 15:00 12,2 C 11,6 C 10,1 C 76 % 1002,6 hPa 0,0 l/m 0,00 h 0,00 h 36 W/m 12,2 km/h (2 Bft) 99,43 %
26.10.2020 16:00 11,9 C 11,0 C 9,9 C 77 % 1002,5 hPa 0,0 l/m 0,00 h 0,10 h 14 W/m 8,5 km/h (2 Bft) 94,53 %
26.10.2020 17:00 11,6 C 10,9 C 9,5 C 77 % 1002,4 hPa 0,0 l/m 0,00 h 0,00 h 4 W/m 5,1 km/h (1 Bft) 96,87 %
26.10.2020 18:00 11,3 C 10,4 C 9,3 C 78 % 1002,8 hPa 0,0 l/m 0,00 h 0,00 h 0 W/m 6,8 km/h (2 Bft) 99,19 %
26.10.2020 19:00 10,8 C 10,0 C 8,9 C 82 % 1003,1 hPa 0,0 l/m 0,00 h 0,00 h 0 W/m 4,6 km/h (1 Bft) 96,78 %
26.10.2020 20:00 10,7 C 9,9 C 8,8 C 83 % 1003,5 hPa 0,0 l/m 0,00 h 0,00 h 0 W/m 9,6 km/h (2 Bft) 98,15 %
26.10.2020 21:00 10,4 C 9,7 C 8,6 C 84 % 1003,7 hPa 0,0 l/m 0,00 h 0,00 h 0 W/m 12,9 km/h (3 Bft) 97,19 %
26.10.2020 22:00 10,4 C 9,7 C 8,5 C 85 % 1003,7 hPa 0,0 l/m 0,00 h 0,00 h 0 W/m 11,2 km/h (2 Bft) 95,81 %
26.10.2020 23:00 10,4 C 10,0 C 8,7 C 85 % 1003,8 hPa 0,0 l/m 0,00 h 0,00 h 0 W/m 17,0 km/h (3 Bft) 99,65 %
27.10.2020 00:00 10,2 C 8,5 C 7,5 C 88 % 1003,9 hPa 0,2 l/m 0,00 h 0,37 h 0 W/m 17,9 km/h (3 Bft) 92,70 %
27.10.2020 01:00 9,5 C 8,3 C 7,6 C 89 % 1004,0 hPa 0,0 l/m 0,00 h 0,00 h 0 W/m 18,9 km/h (3 Bft) 96,79 %
27.10.2020 02:00 8,9 C 7,9 C 7,2 C 90 % 1004,1 hPa 0,0 l/m 0,00 h 0,00 h 0 W/m 9,5 km/h (2 Bft) 99,08 %
27.10.2020 03:00 8,7 C 8,0 C 7,3 C 92 % 1004,2 hPa 0,0 l/m 0,00 h 0,00 h 0 W/m 8,9 km/h (2 Bft) 98,22 %
27.10.2020 04:00 9,1 C 8,8 C 7,8 C 93 % 1004,4 hPa 0,0 l/m 0,00 h 0,00 h 0 W/m 14,1 km/h (3 Bft) 96,66 %
27.10.2020 05:00 9,1 C 8,3 C 7,5 C 91 % 1004,6 hPa 0,0 l/m 0,00 h 0,00 h 0 W/m 11,7 km/h (2 Bft) 95,49 %
27.10.2020 06:00 8,8 C 7,9 C 7,2 C 91 % 1005,2 hPa 0,0 l/m 0,00 h 0,00 h 0 W/m 7,9 km/h (2 Bft) 98,23 %
27.10.2020 07:00 8,7 C 8,1 C 7,4 C 93 % 1005,6 hPa 0,0 l/m 0,00 h 0,00 h 7 W/m 7,4 km/h (2 Bft) 96,40 %
27.10.2020 08:00 8,9 C 8,9 C 7,8 C 92 % 1006,1 hPa 0,0 l/m 0,07 h 0,00 h 42 W/m 8,6 km/h (2 Bft) 95,94 %
27.10.2020 09:00 10,2 C 12,1 C 9,2 C 89 % 1006,2 hPa 0,0 l/m 0,60 h 0,00 h 192 W/m 18,0 km/h (3 Bft) 97,51 %
27.10.2020 10:00 11,2 C 12,0 C 9,8 C 84 % 1006,4 hPa 0,0 l/m 0,50 h 0,00 h 214 W/m 27,1 km/h (4 Bft) 99,22 %
27.10.2020 11:00 11,5 C 11,9 C 10,1 C 81 % 1006,5 hPa 0,0 l/m 0,27 h 0,00 h 188 W/m 29,5 km/h (5 Bft) 95,59 %
27.10.2020 12:00 12,1 C 12,2 C 10,6 C 78 % 1006,3 hPa 0,0 l/m 0,13 h 0,00 h 170 W/m 30,2 km/h (5 Bft) 97,38 %
27.10.2020 13:00 12,4 C 12,3 C 10,6 C 77 % 1006,1 hPa 0,0 l/m 0,07 h 0,00 h 131 W/m 32,4 km/h (5 Bft) 99,71 %
27.10.2020 14:00 12,2 C 11,8 C 10,2 C 76 % 1005,8 hPa 0,0 l/m 0,00 h 0,00 h 74 W/m 26,5 km/h (4 Bft) 95,11 %
27.10.2020 15:00 12,1 C 11,7 C 10,0 C 77 % 1005,5 hPa 0,0 l/m 0,00 h 0,00 h 70 W/m 21,5 km/h (4 Bft) 97,32 %
27.10.2020 16:00 11,8 C 11,1 C 9,5 C 77 % 1005,0 hPa 0,0 l/m 0,00 h 0,03 h 31 W/m 20,4 km/h (4 Bft) 99,15 %
27.10.2020 17:00 11,5 C 10,6 C 9,5 C 78 % 1004,7 hPa 0,0 l/m 0,00 h 0,00 h 0 W/m 13,9 km/h (3 Bft) 96,15 %
27.10.2020 18:00 11,3 C 10,6 C 9,4 C 79 % 1004,3 hPa 0,0 l/m 0,00 h 0,00 h 0 W/m 20,2 km/h (4 Bft) 96,72 %
27.10.2020 19:00 11,3 C 9,7 C 8,7 C 81 % 1004,0 hPa 0,0 l/m 0,00 h 0,47 h 0 W/m 19,3 km/h (3 Bft) 98,44 %
27.10.2020 20:00 10,4 C 9,3 C 8,2 C 89 % 1003,4 hPa 0,0 l/m 0,00 h 0,10 h 0 W/m 17,7 km/h (3 Bft) 97,57 %
27.10.2020 21:00 10,6 C 10,5 C 9,1 C 88 % 1003,1 hPa 0,0 l/m 0,00 h 0,00 h 0 W/m 17,2 km/h (3 Bft) 97,26 %
27.10.2020 22:00 11,4 C 9,9 C 8,9 C 86 % 1003,0 hPa 0,2 l/m 0,00 h 0,13 h 0 W/m 14,9 km/h (3 Bft) 97,22 %
27.10.2020 23:00 11,4 C 10,1 C 9,0 C 91 % 1003,1 hPa 0,0 l/m 0,00 h 0,03 h 0 W/m 23,4 km/h (4 Bft) 97,14 %
28.10.2020 00:00 11,9 C 11,1 C 10,1 C 90 % 1003,5 hPa 0,0 l/m 0,00 h 0,00 h 0 W/m 27,1 km/h (4 Bft) 99,55 %
28.10.2020 01:00 12,2 C 11,3 C 10,2 C 91 % 1004,2 hPa 0,0 l/m 0,00 h 0,00 h 0 W/m 23,2 km/h (4 Bft) 95,46 %
28.10.2020 02:00 12,0 C 11,5 C 10,3 C 91 % 1004,8 hPa 0,0 l/m 0,00 h 0,00 h 0 W/m 14,2 km/h (3 Bft) 96,73 %
28.10.2020 03:00 11,9 C 11,1 C 10,0 C 92 % 1004,9 hPa 0,0 l/m 0,00 h 0,00 h 0 W/m 6,9 km/h (2 Bft) 99,51 %
28.10.2020 04:00 11,5 C 10,5 C 9,7 C 93 % 1005,0 hPa 0,0 l/m 0,00 h 0,00 h 0 W/m 5,4 km/h (1 Bft) 96,66 %
28.10.2020 05:00 11,0 C 10,1 C 9,3 C 95 % 1005,5 hPa 0,0 l/m 0,00 h 0,00 h 0 W/m 7,0 km/h (2 Bft) 95,94 %
28.10.2020 06:00 10,8 C 10,0 C 9,3 C 96 % 1006,1 hPa 0,0 l/m 0,00 h 0,00 h 0 W/m 8,1 km/h (2 Bft) 98,85 %
28.10.2020 07:00 10,6 C 10,4 C 9,4 C 96 % 1006,9 hPa 0,0 l/m 0,00 h 0,03 h 15 W/m 9,9 km/h (2 Bft) 96,72 %
28.10.2020 08:00 11,1 C 11,3 C 10,2 C 95 % 1007,6 hPa 0,0 l/m 0,23 h 0,00 h 71 W/m 9,0 km/h (2 Bft) 98,42 %
28.10.2020 09:00 12,3 C 13,3 C 11,3 C 91 % 1007,9 hPa 0,0 l/m 0,73 h 0,00 h 196 W/m 19,8 km/h (4 Bft) 96,96 %
28.10.2020 10:00 13,1 C 14,0 C 11,9 C 84 % 1008,3 hPa 0,0 l/m 0,57 h 0,00 h 234 W/m 30,5 km/h (5 Bft) 98,33 %
28.10.2020 11:00 14,0 C 16,2 C 12,1 C 78 % 1008,7 hPa 0,0 l/m 0,73 h 0,00 h 329 W/m 31,8 km/h (5 Bft) 95,85 %
28.10.2020 12:00 13,8 C 14,9 C 12,3 C 77 % 1009,0 hPa 0,0 l/m 0,33 h 0,03 h 223 W/m 27,5 km/h (4 Bft) 97,20 %
28.10.2020 13:00 14,8 C 16,7 C 12,6 C 72 % 1008,9 hPa 0,0 l/m 0,77 h 0,00 h 337 W/m 32,6 km/h (5 Bft) 99,65 %
28.10.2020 14:00 14,5 C 14,7 C 12,2 C 71 % 1008,6 hPa 0,0 l/m 0,23 h 0,00 h 141 W/m 28,5 km/h (4 Bft) 95,89 %
28.10.2020 15:00 14,3 C 14,2 C 12,0 C 70 % 1008,5 hPa 0,0 l/m 0,33 h 0,00 h 96 W/m 30,8 km/h (5 Bft) 97,65 %
28.10.2020 16:00 13,8 C 13,1 C 11,5 C 73 % 1008,3 hPa 0,0 l/m 0,07 h 0,00 h 29 W/m 27,6 km/h (4 Bft) 99,00 %
28.10.2020 17:00 13,2 C 12,1 C 10,7 C 76 % 1008,1 hPa 0,0 l/m 0,00 h 0,00 h 5 W/m 20,5 km/h (4 Bft) 95,85 %
28.10.2020 18:00 12,7 C 11,7 C 10,2 C 79 % 1008,1 hPa 0,2 l/m 0,00 h 0,30 h 0 W/m 23,1 km/h (4 Bft) 97,32 %
28.10.2020 19:00 12,3 C 10,6 C 9,1 C 84 % 1007,7 hPa 0,0 l/m 0,00 h 0,87 h 0 W/m 26,7 km/h (4 Bft) 98,65 %
28.10.2020 20:00 12,4 C 11,7 C 10,3 C 84 % 1007,3 hPa 0,0 l/m 0,00 h 0,10 h 0 W/m 26,9 km/h (4 Bft) 97,03 %
28.10.2020 21:00 12,2 C 10,6 C 9,5 C 84 % 1007,1 hPa 3,0 l/m 0,00 h 0,47 h 0 W/m 28,0 km/h (4 Bft) 97,18 %
28.10.2020 22:00 10,1 C 8,4 C 7,8 C 92 % 1007,4 hPa 0,0 l/m 0,00 h 0,07 h 0 W/m 19,3 km/h (3 Bft) 96,55 %
28.10.2020 23:00 9,7 C 8,3 C 7,6 C 94 % 1007,5 hPa 0,8 l/m 0,00 h 1,00 h 0 W/m 24,6 km/h (4 Bft) 95,42 %
29.10.2020 00:00 9,4 C 8,2 C 7,5 C 95 % 1007,8 hPa 0,0 l/m 0,00 h 0,73 h 0 W/m 15,4 km/h (3 Bft) 99,82 %
29.10.2020 01:00 9,5 C 8,3 C 7,8 C 95 % 1008,5 hPa 0,0 l/m 0,00 h 0,00 h 0 W/m 15,1 km/h (3 Bft) 96,21 %
29.10.2020 02:00 9,7 C 8,7 C 8,0 C 95 % 1009,1 hPa 0,0 l/m 0,00 h 0,00 h 0 W/m 14,3 km/h (3 Bft) 95,95 %
29.10.2020 03:00 9,7 C 8,9 C 8,0 C 94 % 1009,6 hPa 0,0 l/m 0,00 h 0,00 h 0 W/m 12,6 km/h (3 Bft) 97,95 %
29.10.2020 04:00 9,5 C 8,8 C 8,3 C 93 % 1010,4 hPa 0,0 l/m 0,00 h 0,00 h 0 W/m 11,9 km/h (2 Bft) 96,54 %
29.10.2020 05:00 9,3 C 8,6 C 8,2 C 93 % 1011,1 hPa 0,0 l/m 0,00 h 0,00 h 0 W/m 10,6 km/h (2 Bft) 98,43 %
29.10.2020 06:00 8,9 C 8,0 C 7,8 C 93 % 1012,1 hPa 0,0 l/m 0,00 h 0,00 h 0 W/m 8,9 km/h (2 Bft) 96,46 %
29.10.2020 07:00 8,5 C 7,8 C 7,7 C 94 % 1013,3 hPa 0,0 l/m 0,00 h 0,00 h 12 W/m 7,8 km/h (2 Bft) 95,66 %
29.10.2020 08:00 8,7 C 8,5 C 8,1 C 95 % 1014,5 hPa 0,0 l/m 0,03 h 0,00 h 43 W/m 10,6 km/h (2 Bft) 97,44 %
29.10.2020 09:00 9,7 C 10,8 C 9,1 C 92 % 1015,4 hPa 0,0 l/m 0,83 h 0,00 h 168 W/m 16,6 km/h (3 Bft) 98,09 %
29.10.2020 10:00 10,7 C 12,0 C 9,9 C 88 % 1016,5 hPa 0,0 l/m 0,87 h 0,00 h 248 W/m 17,7 km/h (3 Bft) 95,01 %
29.10.2020 11:00 11,6 C 12,2 C 10,9 C 86 % 1017,1 hPa 0,0 l/m 0,50 h 0,00 h 191 W/m 13,3 km/h (3 Bft) 99,51 %
29.10.2020 12:00 12,0 C 12,0 C 11,2 C 86 % 1017,3 hPa 0,0 l/m 0,00 h 0,00 h 137 W/m 11,2 km/h (2 Bft) 97,39 %
29.10.2020 13:00 12,1 C 11,9 C 11,2 C 86 % 1017,4 hPa 0,0 l/m 0,00 h 0,00 h 104 W/m 13,0 km/h (3 Bft) 96,10 %
29.10.2020 14:00 12,0 C 11,1 C 10,4 C 87 % 1017,6 hPa 0,2 l/m 0,00 h 0,43 h 59 W/m 10,5 km/h (2 Bft) 97,96 %
29.10.2020 15:00 11,7 C 9,9 C 9,5 C 91 % 1017,7 hPa 0,4 l/m 0,00 h 1,00 h 30 W/m 9,6 km/h (2 Bft) 98,39 %
29.10.2020 16:00 11,3 C 9,9 C 9,5 C 95 % 1017,7 hPa 0,6 l/m 0,00 h 0,97 h 11 W/m 11,9 km/h (2 Bft) 97,74 %
29.10.2020 17:00 10,9 C 9,4 C 9,5 C 96 % 1017,6 hPa 0,6 l/m 0,00 h 1,00 h 0 W/m 10,7 km/h (2 Bft) 96,52 %
29.10.2020 18:00 10,8 C 9,4 C 9,5 C 97 % 1017,4 hPa 0,4 l/m 0,00 h 1,00 h 0 W/m 9,8 km/h (2 Bft) 97,35 %
29.10.2020 19:00 10,7 C 9,4 C 9,5 C 98 % 1017,2 hPa 1,4 l/m 0,00 h 1,00 h 0 W/m 10,8 km/h (2 Bft) 97,80 %
29.10.2020 20:00 10,6 C 9,4 C 9,5 C 98 % 1017,0 hPa 1,8 l/m 0,00 h 1,00 h 0 W/m 13,4 km/h (3 Bft) 97,98 %
29.10.2020 21:00 10,9 C 10,1 C 9,8 C 99 % 1016,8 hPa 0,4 l/m 0,00 h 0,10 h 0 W/m 16,9 km/h (3 Bft) 96,26 %
29.10.2020 22:00 11,5 C 10,7 C 10,5 C 99 % 1016,7 hPa 0,0 l/m 0,00 h 0,07 h 0 W/m 18,6 km/h (3 Bft) 96,08 %
29.10.2020 23:00 11,9 C 11,1 C 10,8 C 99 % 1016,5 hPa 0,0 l/m 0,00 h 0,03 h 0 W/m 16,5 km/h (3 Bft) 97,20 %
30.10.2020 00:00 12,2 C 11,5 C 11,1 C 100 % 1016,3 hPa 0,0 l/m 0,00 h 0,07 h 0 W/m 12,7 km/h (3 Bft) 98,87 %
30.10.2020 01:00 12,5 C 11,7 C 11,4 C 99 % 1016,3 hPa 0,0 l/m 0,00 h 0,00 h 0 W/m 15,0 km/h (3 Bft) 97,88 %
30.10.2020 02:00 12,9 C 12,2 C 11,7 C 98 % 1016,5 hPa 0,0 l/m 0,00 h 0,00 h 0 W/m 18,4 km/h (3 Bft) 97,68 %
30.10.2020 03:00 13,1 C 12,8 C 11,7 C 97 % 1016,7 hPa 0,0 l/m 0,00 h 0,00 h 0 W/m 14,1 km/h (3 Bft) 96,72 %
30.10.2020 04:00 13,3 C 12,8 C 11,8 C 95 % 1016,8 hPa 0,0 l/m 0,00 h 0,00 h 0 W/m 14,2 km/h (3 Bft) 96,00 %
30.10.2020 05:00 13,6 C 12,8 C 12,2 C 94 % 1017,1 hPa 0,0 l/m 0,00 h 0,37 h 0 W/m 12,2 km/h (2 Bft) 98,72 %
30.10.2020 06:00 13,6 C 12,8 C 12,3 C 94 % 1017,3 hPa 0,0 l/m 0,00 h 0,00 h 0 W/m 16,3 km/h (3 Bft) 98,31 %
30.10.2020 07:00 13,5 C 12,7 C 12,2 C 95 % 1018,0 hPa 0,0 l/m 0,00 h 0,00 h 10 W/m 12,0 km/h (2 Bft) 97,32 %
30.10.2020 08:00 13,4 C 12,7 C 12,2 C 96 % 1018,6 hPa 0,0 l/m 0,00 h 0,00 h 23 W/m 11,7 km/h (2 Bft) 98,96 %
30.10.2020 09:00 13,5 C 12,9 C 12,4 C 96 % 1018,8 hPa 0,0 l/m 0,00 h 0,00 h 42 W/m 10,7 km/h (2 Bft) 95,96 %
30.10.2020 10:00 14,0 C 13,9 C 13,2 C 94 % 1019,1 hPa 0,0 l/m 0,00 h 0,00 h 72 W/m 10,5 km/h (2 Bft) 97,43 %
30.10.2020 11:00 14,6 C 14,4 C 14,1 C 92 % 1019,6 hPa 0,0 l/m 0,00 h 0,00 h 86 W/m 12,8 km/h (3 Bft) 99,59 %
30.10.2020 12:00 15,1 C 15,3 C 14,6 C 90 % 1019,6 hPa 0,0 l/m 0,00 h 0,07 h 137 W/m 8,5 km/h (2 Bft) 97,28 %
30.10.2020 13:00 15,9 C 15,8 C 14,9 C 86 % 1019,8 hPa 0,0 l/m 0,17 h 0,00 h 121 W/m 10,1 km/h (2 Bft) 95,49 %
30.10.2020 14:00 15,9 C 15,6 C 14,5 C 84 % 1020,1 hPa 0,0 l/m 0,00 h 0,00 h 79 W/m 8,6 km/h (2 Bft) 99,00 %
30.10.2020 15:00 15,7 C 14,9 C 14,1 C 84 % 1020,5 hPa 0,0 l/m 0,00 h 0,00 h 41 W/m 8,4 km/h (2 Bft) 97,96 %
30.10.2020 16:00 15,3 C 14,4 C 13,4 C 86 % 1020,9 hPa 0,0 l/m 0,00 h 0,00 h 15 W/m 8,1 km/h (2 Bft) 96,51 %
30.10.2020 17:00 15,0 C 14,3 C 13,4 C 87 % 1021,2 hPa 0,0 l/m 0,00 h 0,00 h 4 W/m 5,4 km/h (1 Bft) 97,01 %
30.10.2020 18:00 15,0 C 14,4 C 13,4 C 87 % 1021,7 hPa 0,0 l/m 0,00 h 0,00 h 0 W/m 11,5 km/h (2 Bft) 98,98 %
30.10.2020 19:00 14,9 C 14,0 C 13,3 C 88 % 1022,1 hPa 0,0 l/m 0,00 h 0,00 h 0 W/m 9,0 km/h (2 Bft) 97,79 %
30.10.2020 20:00 14,5 C 13,9 C 12,8 C 89 % 1022,4 hPa 0,0 l/m 0,00 h 0,00 h 0 W/m 5,2 km/h (1 Bft) 95,88 %
30.10.2020 21:00 14,3 C 13,9 C 12,8 C 90 % 1022,7 hPa 0,0 l/m 0,00 h 0,00 h 0 W/m 12,3 km/h (3 Bft) 99,30 %
30.10.2020 22:00 14,2 C 13,4 C 12,8 C 91 % 1023,0 hPa 0,0 l/m 0,00 h 0,00 h 0 W/m 6,2 km/h (2 Bft) 97,25 %
30.10.2020 23:00 14,2 C 13,4 C 12,8 C 91 % 1023,5 hPa 0,0 l/m 0,00 h 0,00 h 0 W/m 6,3 km/h (2 Bft) 97,50 %
31.10.2020 00:00 14,2 C 13,3 C 12,6 C 90 % 1023,6 hPa 0,0 l/m 0,00 h 0,00 h 0 W/m 4,8 km/h (1 Bft) 97,75 %
31.10.2020 01:00 14,0 C 13,3 C 12,2 C 91 % 1023,5 hPa 0,0 l/m 0,00 h 0,00 h 0 W/m 4,2 km/h (1 Bft) 96,36 %
31.10.2020 02:00 13,9 C 13,3 C 12,2 C 91 % 1023,4 hPa 0,0 l/m 0,00 h 0,00 h 0 W/m 4,0 km/h (1 Bft) 97,27 %
31.10.2020 03:00 13,8 C 12,9 C 12,2 C 92 % 1023,1 hPa 0,0 l/m 0,00 h 0,00 h 0 W/m 2,0 km/h (1 Bft) 97,95 %
31.10.2020 04:00 13,6 C 12,8 C 12,1 C 92 % 1023,0 hPa 0,0 l/m 0,00 h 0,00 h 0 W/m 3,3 km/h (1 Bft) 94,73 %
31.10.2020 05:00 13,4 C 12,7 C 11,8 C 93 % 1022,8 hPa 0,0 l/m 0,00 h 0,00 h 0 W/m 2,6 km/h (1 Bft) 99,71 %
31.10.2020 06:00 13,1 C 12,2 C 11,7 C 93 % 1022,6 hPa 0,0 l/m 0,00 h 0,00 h 0 W/m 2,4 km/h (1 Bft) 99,03 %
31.10.2020 07:00 12,9 C 12,2 C 11,7 C 93 % 1022,4 hPa 0,0 l/m 0,00 h 0,00 h 8 W/m 0,4 km/h (0 Bft) 93,30 %
31.10.2020 08:00 12,9 C 12,6 C 11,7 C 93 % 1022,1 hPa 0,0 l/m 0,00 h 0,00 h 27 W/m 1,8 km/h (1 Bft) 99,50 %
31.10.2020 09:00 13,2 C 13,2 C 12,2 C 92 % 1021,5 hPa 0,0 l/m 0,00 h 0,00 h 77 W/m 6,6 km/h (2 Bft) 98,51 %
31.10.2020 10:00 14,1 C 16,1 C 13,1 C 86 % 1020,7 hPa 0,0 l/m 0,70 h 0,00 h 260 W/m 14,8 km/h (3 Bft) 95,44 %
31.10.2020 11:00 15,7 C 19,7 C 13,6 C 76 % 1019,8 hPa 0,0 l/m 0,90 h 0,00 h 372 W/m 21,2 km/h (4 Bft) 97,43 %
31.10.2020 12:00 16,8 C 20,4 C 14,8 C 73 % 1018,6 hPa 0,0 l/m 1,00 h 0,00 h 430 W/m 26,3 km/h (4 Bft) 98,17 %
31.10.2020 13:00 17,2 C 20,6 C 14,8 C 72 % 1017,6 hPa 0,0 l/m 1,00 h 0,00 h 403 W/m 28,1 km/h (4 Bft) 98,46 %
31.10.2020 14:00 17,7 C 20,5 C 14,7 C 71 % 1016,4 hPa 0,0 l/m 0,97 h 0,00 h 313 W/m 24,1 km/h (4 Bft) 96,76 %
31.10.2020 15:00 17,0 C 16,5 C 14,4 C 72 % 1015,8 hPa 0,0 l/m 0,20 h 0,00 h 91 W/m 19,6 km/h (3 Bft) 97,27 %
31.10.2020 16:00 16,1 C 15,0 C 13,5 C 75 % 1015,2 hPa 0,0 l/m 0,23 h 0,00 h 34 W/m 16,2 km/h (3 Bft) 98,36 %
31.10.2020 17:00 15,2 C 14,0 C 12,5 C 77 % 1014,8 hPa 0,0 l/m 0,00 h 0,00 h 4 W/m 14,9 km/h (3 Bft) 97,43 %
31.10.2020 18:00 14,5 C 13,9 C 12,3 C 80 % 1014,6 hPa 0,0 l/m 0,00 h 0,00 h 0 W/m 14,3 km/h (3 Bft) 97,74 %
31.10.2020 19:00 14,6 C 12,7 C 11,4 C 82 % 1014,2 hPa 0,4 l/m 0,00 h 0,47 h 0 W/m 15,1 km/h (3 Bft) 96,93 %
31.10.2020 20:00 14,0 C 11,6 C 10,6 C 88 % 1014,3 hPa 0,6 l/m 0,00 h 0,57 h 0 W/m 9,7 km/h (2 Bft) 97,80 %
31.10.2020 21:00 13,6 C 12,0 C 11,2 C 94 % 1014,5 hPa 0,4 l/m 0,00 h 0,37 h 0 W/m 14,4 km/h (3 Bft) 99,43 %
31.10.2020 22:00 13,9 C 12,8 C 11,7 C 97 % 1014,7 hPa 0,0 l/m 0,00 h 0,00 h 0 W/m 14,5 km/h (3 Bft) 95,02 %
31.10.2020 23:00 13,9 C 12,8 C 11,9 C 97 % 1014,7 hPa 0,0 l/m 0,00 h 0,03 h 0 W/m 13,0 km/h (3 Bft) 97,57 %
01.11.2020 00:00 13,9 C 12,5 C 11,8 C 96 % 1014,9 hPa 0,0 l/m 0,00 h 0,00 h 0 W/m 2,7 km/h (1 Bft) 99,48 %
01.11.2020 01:00 13,2 C 11,9 C 11,0 C 95 % 1015,4 hPa 0,0 l/m 0,00 h 0,00 h 0 W/m 3,1 km/h (1 Bft) 96,05 %
01.11.2020 02:00 12,3 C 11,6 C 10,0 C 93 % 1015,4 hPa 0,0 l/m 0,00 h 0,00 h 0 W/m 0,1 km/h (0 Bft) 97,30 %
01.11.2020 03:00 12,1 C 11,4 C 9,9 C 93 % 1015,2 hPa 0,0 l/m 0,00 h 0,00 h 0 W/m 0,3 km/h (0 Bft) 97,93 %
01.11.2020 04:00 11,8 C 11,1 C 9,5 C 92 % 1014,7 hPa 0,0 l/m 0,00 h 0,00 h 0 W/m 0,2 km/h (0 Bft) 97,26 %
01.11.2020 05:00 11,7 C 11,0 C 9,5 C 92 % 1014,6 hPa 0,0 l/m 0,00 h 0,00 h 0 W/m 0,9 km/h (0 Bft) 99,36 %
01.11.2020 06:00 11,6 C 10,8 C 9,7 C 93 % 1014,2 hPa 0,0 l/m 0,00 h 0,13 h 0 W/m 1,0 km/h (0 Bft) 96,69 %
01.11.2020 07:00 11,7 C 10,8 C 9,8 C 94 % 1013,7 hPa 0,0 l/m 0,00 h 0,00 h 4 W/m 2,0 km/h (1 Bft) 96,26 %
01.11.2020 08:00 11,6 C 11,6 C 10,6 C 94 % 1013,3 hPa 0,0 l/m 0,00 h 0,00 h 32 W/m 2,5 km/h (1 Bft) 98,86 %
01.11.2020 09:00 12,3 C 13,1 C 11,8 C 92 % 1012,7 hPa 0,0 l/m 0,03 h 0,00 h 96 W/m 8,7 km/h (2 Bft) 97,41 %
01.11.2020 10:00 14,0 C 14,9 C 13,3 C 88 % 1012,1 hPa 0,0 l/m 0,17 h 0,00 h 143 W/m 11,1 km/h (2 Bft) 96,38 %
01.11.2020 11:00 15,3 C 15,6 C 13,9 C 83 % 1011,7 hPa 0,0 l/m 0,00 h 0,00 h 96 W/m 12,9 km/h (3 Bft) 98,98 %
01.11.2020 12:00 16,0 C 15,6 C 14,3 C 84 % 1010,7 hPa 0,0 l/m 0,00 h 0,00 h 83 W/m 12,3 km/h (3 Bft) 95,60 %
01.11.2020 13:00 16,4 C 16,1 C 14,7 C 87 % 1009,9 hPa 0,0 l/m 0,00 h 0,00 h 55 W/m 17,6 km/h (3 Bft) 98,01 %
01.11.2020 14:00 17,1 C 15,8 C 14,8 C 93 % 1009,2 hPa 0,0 l/m 0,00 h 0,07 h 64 W/m 19,8 km/h (4 Bft) 96,84 %
01.11.2020 15:00 17,4 C 17,1 C 16,0 C 93 % 1009,1 hPa 0,0 l/m 0,03 h 0,00 h 55 W/m 24,6 km/h (4 Bft) 96,44 %
01.11.2020 16:00 17,9 C 17,0 C 15,9 C 90 % 1009,2 hPa 0,0 l/m 0,00 h 0,00 h 17 W/m 27,0 km/h (4 Bft) 98,15 %
01.11.2020 17:00 17,7 C 16,7 C 15,6 C 91 % 1009,3 hPa 0,0 l/m 0,00 h 0,00 h 0 W/m 23,2 km/h (4 Bft) 96,68 %
01.11.2020 18:00 17,7 C 17,0 C 15,8 C 90 % 1009,2 hPa 0,0 l/m 0,00 h 0,00 h 0 W/m 25,4 km/h (4 Bft) 97,73 %
01.11.2020 19:00 17,7 C 16,8 C 15,7 C 90 % 1009,4 hPa 0,0 l/m 0,00 h 0,07 h 0 W/m 21,9 km/h (4 Bft) 98,22 %
01.11.2020 20:00 17,9 C 16,7 C 15,5 C 91 % 1009,4 hPa 0,0 l/m 0,00 h 0,40 h 0 W/m 24,0 km/h (4 Bft) 96,04 %
01.11.2020 21:00 17,8 C 17,0 C 15,8 C 91 % 1009,1 hPa 0,0 l/m 0,00 h 0,07 h 0 W/m 19,0 km/h (3 Bft) 98,43 %
01.11.2020 22:00 17,9 C 17,0 C 15,9 C 91 % 1008,8 hPa 0,0 l/m 0,00 h 0,17 h 0 W/m 21,9 km/h (4 Bft) 97,69 %
01.11.2020 23:00 17,8 C 16,3 C 15,4 C 92 % 1008,6 hPa 1,2 l/m 0,00 h 0,43 h 0 W/m 13,1 km/h (3 Bft) 97,09 %
Min-Datum _ 29.10.20 27.10.20 27.10.20 28.10.20 26.10.20 - - - - 26.10.20 27.10.20
_ Min-Zeit 07:22 02:10 00:16 13:50 06:14 - - - - 00:00 00:02
Minimum _ 8,5 C 7,8 C 7,2 C 69 % 1000,6 hPa - - - - 0,0 km/h (0 Bft) 10,53 %
Max-Datum _ 01.11.20 31.10.20 31.10.20 30.10.20 30.10.20 28.10.20 31.10.20 27.10.20 28.10.20 28.10.20 26.10.20
_ Max-Zeit 16:30 11:26 12:32 00:00 23:28 21:36 12:08 00:08 13:22 13:24 00:00
Maximum _ 18,0 C 21,1 C 16,7 C 100 % 1023,6 hPa 3,0 l/m 0,07 h 0,07 h 552 W/m 57,9 km/h
S-SO (7 Bft)
100,00 %
Durchschnitt _ 12,6 C 12,1 C 10,9 C 88 % 1011,3 hPa #12,8 l/m #14:22 h #14:58 h 110 W/m 13,8 km/h (3 Bft) 97,39 %
© 2020 W. Hausmann